Time;durP1;ratioP1;P1;durP2;ratioP2;P2;SDS_P1;SDS_P2;PMS_P1;PMS_P2;Temp;Humidity;BMP_temperature;BMP_pressure;BME280_temperature;BME280_humidity;BME280_pressure;Samples;Min_cycle;Max_cycle;Signal;HPM_P1;HPM_P2
2022/12/11 00:02:21;;;;;;;;;49.25;40.75;;;;;;;;5061088;28;45318;-75
2022/12/11 00:04:46;;;;;;;;;49.75;42.00;;;;;;;;5062089;28;45251;-75
2022/12/11 00:07:11;;;;;;;;;44.75;38.50;;;;;;;;5061821;28;46015;-75
2022/12/11 00:09:36;;;;;;;;;47.25;37.25;;;;;;;;5062130;28;45770;-75
2022/12/11 00:12:04;;;;;;;;;42.50;33.50;;;;;;;;5061954;28;45498;-75
2022/12/11 00:14:29;;;;;;;;;42.50;36.50;;;;;;;;5060274;28;45912;-75
2022/12/11 00:16:54;;;;;;;;;40.50;35.25;;;;;;;;5060189;28;46801;-75
2022/12/11 00:19:19;;;;;;;;;46.25;39.00;;;;;;;;5061470;28;45444;-75
2022/12/11 00:21:45;;;;;;;;;51.75;40.00;;;;;;;;5061995;28;45450;-75
2022/12/11 00:24:10;;;;;;;;;48.00;37.00;;;;;;;;5061857;28;45314;-75
2022/12/11 00:26:35;;;;;;;;;47.50;41.25;;;;;;;;5061689;28;45548;-75
2022/12/11 00:29:01;;;;;;;;;45.75;38.00;;;;;;;;5060301;28;45775;-75
2022/12/11 00:31:26;;;;;;;;;46.75;41.00;;;;;;;;5061557;28;45303;-75
2022/12/11 00:33:51;;;;;;;;;40.50;36.25;;;;;;;;5061540;28;45425;-75
2022/12/11 00:36:21;;;;;;;;;45.50;39.25;;;;;;;;5061374;28;45449;-75
2022/12/11 00:38:48;;;;;;;;;42.75;38.75;;;;;;;;5061454;28;45339;-75
2022/12/11 00:41:13;;;;;;;;;45.25;39.75;;;;;;;;5060341;28;45321;-75
2022/12/11 00:43:39;;;;;;;;;36.50;30.50;;;;;;;;5059782;28;45771;-75
2022/12/11 00:46:04;;;;;;;;;38.50;35.25;;;;;;;;5061083;28;45236;-75
2022/12/11 00:48:30;;;;;;;;;37.50;33.50;;;;;;;;5061390;28;45377;-75
2022/12/11 00:50:55;;;;;;;;;40.50;32.50;;;;;;;;5061520;28;45256;-75
2022/12/11 00:53:20;;;;;;;;;33.00;32.00;;;;;;;;5059851;28;46977;-75
2022/12/11 00:55:46;;;;;;;;;38.00;34.00;;;;;;;;5061128;28;46099;-75
2022/12/11 00:58:11;;;;;;;;;33.25;27.75;;;;;;;;5061224;28;45332;-75
2022/12/11 01:00:37;;;;;;;;;34.25;31.75;;;;;;;;5061186;28;45478;-75
2022/12/11 01:03:02;;;;;;;;;40.75;35.25;;;;;;;;5061105;28;45157;-75
2022/12/11 01:05:28;;;;;;;;;35.25;33.25;;;;;;;;5059314;28;48046;-75
2022/12/11 01:07:53;;;;;;;;;33.75;30.75;;;;;;;;5061074;28;45345;-75
2022/12/11 01:10:24;;;;;;;;;39.50;31.25;;;;;;;;5061020;28;45497;-75
2022/12/11 01:12:54;;;;;;;;;38.00;31.50;;;;;;;;5061104;28;45466;-75
2022/12/11 01:15:20;;;;;;;;;34.25;33.50;;;;;;;;5060322;28;46264;-74
2022/12/11 01:17:45;;;;;;;;;39.50;35.50;;;;;;;;5060789;28;45394;-75
2022/12/11 01:20:10;;;;;;;;;32.50;29.25;;;;;;;;5059449;28;45328;-74
2022/12/11 01:22:36;;;;;;;;;37.25;31.75;;;;;;;;5060621;28;45436;-74
2022/12/11 01:25:01;;;;;;;;;32.75;30.00;;;;;;;;5060894;28;45333;-75
2022/12/11 01:27:26;;;;;;;;;33.50;29.00;;;;;;;;5060798;28;45421;-75
2022/12/11 01:29:52;;;;;;;;;29.00;24.25;;;;;;;;5060703;28;45449;-75
2022/12/11 01:32:17;;;;;;;;;32.75;29.25;;;;;;;;5060597;28;45317;-75
2022/12/11 01:34:42;;;;;;;;;30.00;26.50;;;;;;;;5060404;28;45317;-75
2022/12/11 01:37:07;;;;;;;;;30.00;28.50;;;;;;;;5060630;28;45233;-75
2022/12/11 01:39:32;;;;;;;;;33.00;32.25;;;;;;;;5059013;28;45400;-74
2022/12/11 01:41:59;;;;;;;;;33.00;29.00;;;;;;;;5060510;28;45283;-75
2022/12/11 01:44:24;;;;;;;;;33.00;29.50;;;;;;;;5060199;28;45414;-75
2022/12/11 01:46:49;;;;;;;;;34.00;25.25;;;;;;;;5058918;28;46115;-74
2022/12/11 01:49:16;;;;;;;;;24.00;23.50;;;;;;;;5060670;28;45350;-75
2022/12/11 01:51:44;;;;;;;;;29.00;23.75;;;;;;;;5060144;28;45531;-74
2022/12/11 01:54:11;;;;;;;;;22.50;21.00;;;;;;;;5058655;28;47505;-75
2022/12/11 01:56:37;;;;;;;;;27.00;23.00;;;;;;;;5060024;28;45271;-75
2022/12/11 01:59:06;;;;;;;;;32.75;30.25;;;;;;;;5060360;28;45334;-75
2022/12/11 02:01:33;;;;;;;;;32.00;30.00;;;;;;;;5058707;28;46107;-74
2022/12/11 02:03:59;;;;;;;;;28.75;26.25;;;;;;;;5060114;28;45398;-74
2022/12/11 02:06:35;;;;;;;;;24.50;24.50;;;;;;;;5060074;28;45245;-75
2022/12/11 02:09:01;;;;;;;;;27.50;27.50;;;;;;;;5060138;28;45408;-75
2022/12/11 02:11:49;;;;;;;;;31.25;24.00;;;;;;;;5058584;28;45954;-75
2022/12/11 02:14:24;;;;;;;;;28.00;21.75;;;;;;;;5052545;28;48536;-74
2022/12/11 02:16:54;;;;;;;;;28.50;25.25;;;;;;;;5058383;28;45332;-74
2022/12/11 02:19:25;;;;;;;;;28.00;20.50;;;;;;;;5059439;28;45404;-74
2022/12/11 02:21:54;;;;;;;;;21.00;19.25;;;;;;;;5059822;28;45649;-75
2022/12/11 02:24:19;;;;;;;;;19.00;16.00;;;;;;;;5059669;28;46320;-75
2022/12/11 02:26:58;;;;;;;;;20.00;15.25;;;;;;;;5059806;28;45398;-74
2022/12/11 02:29:32;;;;;;;;;24.75;21.25;;;;;;;;5058245;28;45323;-74
2022/12/11 02:32:03;;;;;;;;;25.75;19.50;;;;;;;;5059639;28;45373;-75
2022/12/11 02:34:33;;;;;;;;;26.00;20.75;;;;;;;;5059298;28;45516;-75
2022/12/11 02:37:03;;;;;;;;;23.25;19.75;;;;;;;;5059770;28;45298;-74
2022/12/11 02:39:30;;;;;;;;;31.75;28.00;;;;;;;;5057985;28;45312;-75
2022/12/11 02:41:55;;;;;;;;;23.75;20.50;;;;;;;;5058172;28;47400;-75
2022/12/11 02:44:25;;;;;;;;;27.25;20.75;;;;;;;;5059377;28;46164;-74
2022/12/11 02:46:51;;;;;;;;;23.50;18.00;;;;;;;;5059182;28;45341;-75
2022/12/11 02:49:17;;;;;;;;;19.75;18.25;;;;;;;;5059641;28;45385;-75
2022/12/11 02:51:43;;;;;;;;;20.00;18.25;;;;;;;;5058067;28;47375;-74
2022/12/11 02:54:12;;;;;;;;;18.00;16.25;;;;;;;;5057712;28;45994;-74
2022/12/11 02:56:40;;;;;;;;;24.75;22.50;;;;;;;;5057949;28;45382;-75
2022/12/11 02:59:09;;;;;;;;;22.75;18.75;;;;;;;;5059288;28;45389;-74
2022/12/11 03:01:34;;;;;;;;;25.00;23.00;;;;;;;;5057880;28;46414;-74
2022/12/11 03:03:59;;;;;;;;;19.25;18.50;;;;;;;;5059106;28;45339;-75
2022/12/11 03:06:28;;;;;;;;;20.75;20.00;;;;;;;;5059324;28;45273;-75
2022/12/11 03:08:53;;;;;;;;;23.25;19.75;;;;;;;;5059185;28;45336;-75
2022/12/11 03:11:18;;;;;;;;;30.50;28.00;;;;;;;;5059088;28;45580;-74
2022/12/11 03:13:43;;;;;;;;;24.25;23.00;;;;;;;;5058943;28;45259;-74
2022/12/11 03:16:21;;;;;;;;;28.00;23.00;;;;;;;;5058886;28;45286;-75
2022/12/11 03:19:00;;;;;;;;;22.50;17.25;;;;;;;;5057894;28;45344;-74
2022/12/11 03:21:32;;;;;;;;;25.25;19.75;;;;;;;;5058729;28;45184;-74
2022/12/11 03:24:04;;;;;;;;;22.25;17.00;;;;;;;;5058901;28;45365;-74
2022/12/11 03:26:32;;;;;;;;;14.00;13.75;;;;;;;;5058707;28;45537;-74
2022/12/11 03:28:59;;;;;;;;;17.00;16.25;;;;;;;;5058875;28;45323;-75
2022/12/11 03:31:26;;;;;;;;;20.50;17.75;;;;;;;;5062074;28;45370;-74
2022/12/11 03:33:53;;;;;;;;;22.50;20.00;;;;;;;;5061096;28;46035;-75
2022/12/11 03:36:24;;;;;;;;;22.25;21.50;;;;;;;;5062129;28;45430;-74
2022/12/11 03:38:55;;;;;;;;;15.00;11.50;;;;;;;;5060975;28;45268;-75
2022/12/11 03:41:22;;;;;;;;;22.50;17.50;;;;;;;;5062213;28;45609;-74
2022/12/11 03:43:49;;;;;;;;;18.75;17.50;;;;;;;;5062043;28;45360;-74
2022/12/11 03:46:14;;;;;;;;;16.25;15.75;;;;;;;;5062066;28;45795;-74
2022/12/11 03:48:41;;;;;;;;;19.00;17.50;;;;;;;;5060944;28;45440;-74
2022/12/11 03:51:07;;;;;;;;;17.50;16.50;;;;;;;;5062210;28;45368;-74
2022/12/11 03:53:37;;;;;;;;;16.00;14.50;;;;;;;;5060355;28;47445;-74
2022/12/11 03:56:04;;;;;;;;;30.25;26.00;;;;;;;;5060731;28;45348;-74
2022/12/11 03:58:30;;;;;;;;;21.00;19.75;;;;;;;;5061969;28;45182;-74
2022/12/11 04:00:55;;;;;;;;;23.25;22.25;;;;;;;;5061881;28;45317;-74
2022/12/11 04:03:20;;;;;;;;;23.50;18.50;;;;;;;;5061830;28;46293;-74
2022/12/11 04:05:47;;;;;;;;;21.50;18.75;;;;;;;;5062128;28;45324;-74
2022/12/11 04:08:13;;;;;;;;;20.50;19.50;;;;;;;;5062056;28;45747;-74
2022/12/11 04:10:39;;;;;;;;;24.25;21.25;;;;;;;;5060361;28;45474;-74
2022/12/11 04:13:04;;;;;;;;;26.75;23.50;;;;;;;;5062000;28;45398;-74
2022/12/11 04:15:29;;;;;;;;;18.00;13.75;;;;;;;;5060110;28;45800;-75
2022/12/11 04:26:08;;;;;;;;;25.50;20.50;;;;;;;;5061339;28;45241;-74
2022/12/11 04:28:33;;;;;;;;;30.50;26.25;;;;;;;;5061819;28;45397;-74
2022/12/11 04:30:59;;;;;;;;;28.75;24.25;;;;;;;;5061247;28;45452;-74
2022/12/11 04:33:24;;;;;;;;;28.25;23.50;;;;;;;;5060231;28;46989;-75
2022/12/11 04:35:49;;;;;;;;;23.00;19.75;;;;;;;;5061608;28;45304;-75
2022/12/11 04:38:14;;;;;;;;;28.00;25.75;;;;;;;;5061289;28;45335;-74
2022/12/11 04:40:40;;;;;;;;;26.75;25.50;;;;;;;;5060958;28;45680;-74
2022/12/11 04:43:05;;;;;;;;;22.25;18.00;;;;;;;;5061401;28;45383;-74
2022/12/11 04:45:30;;;;;;;;;22.25;22.00;;;;;;;;5061102;28;45320;-75
2022/12/11 04:47:55;;;;;;;;;23.75;19.75;;;;;;;;5061590;28;45310;-74
2022/12/11 04:50:20;;;;;;;;;24.50;23.00;;;;;;;;5061415;28;45568;-74
2022/12/11 04:52:45;;;;;;;;;18.50;17.25;;;;;;;;5059785;28;47054;-74
2022/12/11 04:55:11;;;;;;;;;19.50;19.00;;;;;;;;5061123;28;45508;-74
2022/12/11 04:57:37;;;;;;;;;22.00;18.75;;;;;;;;5061377;28;45326;-74
2022/12/11 05:00:07;;;;;;;;;20.50;18.00;;;;;;;;5060885;28;45511;-74
2022/12/11 05:02:36;;;;;;;;;26.00;22.75;;;;;;;;5060951;28;45329;-74
2022/12/11 05:05:02;;;;;;;;;22.00;21.25;;;;;;;;5061006;28;45468;-74
2022/12/11 05:07:27;;;;;;;;;26.25;23.00;;;;;;;;5061243;28;45341;-74
2022/12/11 05:09:53;;;;;;;;;28.00;24.00;;;;;;;;5060846;28;45544;-74
2022/12/11 05:12:18;;;;;;;;;27.75;20.50;;;;;;;;5060806;28;45230;-74
2022/12/11 05:14:43;;;;;;;;;35.50;24.50;;;;;;;;5060657;28;45369;-74
2022/12/11 05:17:08;;;;;;;;;27.00;24.00;;;;;;;;5059593;28;45493;-74
2022/12/11 05:19:33;;;;;;;;;22.00;21.00;;;;;;;;5060940;28;45268;-74
2022/12/11 05:21:59;;;;;;;;;22.75;19.25;;;;;;;;5060811;28;46742;-75
2022/12/11 05:24:24;;;;;;;;;26.50;21.50;;;;;;;;5060610;28;45280;-74
2022/12/11 05:26:49;;;;;;;;;28.50;23.75;;;;;;;;5060948;28;45184;-74
2022/12/11 05:29:14;;;;;;;;;27.25;20.75;;;;;;;;5059251;28;46705;-74
2022/12/11 05:31:39;;;;;;;;;25.25;24.00;;;;;;;;5060605;28;46012;-74
2022/12/11 05:34:05;;;;;;;;;20.25;19.50;;;;;;;;5060686;28;45145;-75
2022/12/11 05:36:31;;;;;;;;;27.50;22.50;;;;;;;;5060774;28;45339;-74
2022/12/11 05:38:57;;;;;;;;;17.50;16.25;;;;;;;;5060349;28;45512;-74
2022/12/11 05:41:24;;;;;;;;;23.50;22.25;;;;;;;;5060232;28;46460;-74
2022/12/11 05:43:50;;;;;;;;;22.50;20.25;;;;;;;;5059134;28;45481;-74
2022/12/11 05:46:23;;;;;;;;;23.00;21.50;;;;;;;;5060414;28;45327;-74
2022/12/11 05:48:50;;;;;;;;;26.75;23.75;;;;;;;;5047186;28;45329;-74
2022/12/11 05:51:16;;;;;;;;;22.50;22.00;;;;;;;;5060106;28;46396;-74
2022/12/11 05:53:42;;;;;;;;;27.00;22.50;;;;;;;;5058818;28;45381;-74
2022/12/11 05:56:10;;;;;;;;;35.25;27.50;;;;;;;;5058900;28;45403;-75
2022/12/11 05:58:35;;;;;;;;;25.25;23.00;;;;;;;;5060004;28;45407;-74
2022/12/11 06:01:01;;;;;;;;;28.00;21.50;;;;;;;;5058596;28;47735;-75
2022/12/11 06:03:27;;;;;;;;;22.50;19.25;;;;;;;;5060074;28;45386;-74
2022/12/11 06:05:52;;;;;;;;;21.25;20.50;;;;;;;;5060276;28;45207;-75
2022/12/11 06:08:17;;;;;;;;;19.75;18.25;;;;;;;;5060027;28;45422;-74
2022/12/11 06:10:46;;;;;;;;;22.00;17.00;;;;;;;;5059881;28;45381;-74
2022/12/11 06:13:12;;;;;;;;;20.25;18.00;;;;;;;;5060173;28;45385;-75
2022/12/11 06:15:37;;;;;;;;;23.50;15.25;;;;;;;;5059549;28;45359;-74
2022/12/11 06:18:02;;;;;;;;;25.25;21.25;;;;;;;;5059810;28;45332;-75
2022/12/11 06:20:30;;;;;;;;;21.25;17.50;;;;;;;;5059620;28;45397;-74
2022/12/11 06:22:55;;;;;;;;;25.75;22.50;;;;;;;;5059765;28;45343;-74
2022/12/11 06:25:20;;;;;;;;;23.75;20.50;;;;;;;;5059829;28;45221;-75
2022/12/11 06:27:45;;;;;;;;;21.00;16.75;;;;;;;;5059798;28;45390;-75
2022/12/11 06:30:11;;;;;;;;;22.25;18.75;;;;;;;;5059478;28;45217;-74
2022/12/11 06:32:36;;;;;;;;;21.50;18.25;;;;;;;;5059687;28;45223;-75
2022/12/11 06:35:01;;;;;;;;;18.25;18.00;;;;;;;;5058354;28;45255;-74
2022/12/11 06:37:27;;;;;;;;;19.25;16.25;;;;;;;;5059437;28;45407;-74
2022/12/11 06:39:52;;;;;;;;;24.75;18.50;;;;;;;;5059354;28;45829;-74
2022/12/11 06:42:17;;;;;;;;;22.00;21.75;;;;;;;;5058313;28;45899;-74
2022/12/11 06:44:42;;;;;;;;;22.75;18.00;;;;;;;;5059506;28;45303;-74
2022/12/11 06:47:07;;;;;;;;;22.50;18.75;;;;;;;;5059378;28;45776;-74
2022/12/11 06:49:33;;;;;;;;;23.25;20.25;;;;;;;;5059356;28;45247;-74
2022/12/11 06:51:58;;;;;;;;;23.00;21.00;;;;;;;;5059367;28;45366;-75
2022/12/11 06:54:26;;;;;;;;;26.25;21.75;;;;;;;;5059475;28;45461;-75
2022/12/11 06:56:52;;;;;;;;;21.50;19.25;;;;;;;;5059286;28;45615;-74
2022/12/11 06:59:17;;;;;;;;;26.75;24.50;;;;;;;;5059083;28;45429;-75
2022/12/11 07:01:43;;;;;;;;;27.00;24.75;;;;;;;;5057875;28;45908;-75
2022/12/11 07:04:08;;;;;;;;;22.00;20.00;;;;;;;;5059072;28;45300;-74
2022/12/11 07:06:33;;;;;;;;;27.75;25.50;;;;;;;;5057865;28;47135;-74
2022/12/11 07:08:58;;;;;;;;;26.50;23.50;;;;;;;;5057595;28;46910;-74
2022/12/11 07:11:23;;;;;;;;;20.00;20.00;;;;;;;;5051797;28;45409;-74
2022/12/11 07:13:49;;;;;;;;;31.00;26.25;;;;;;;;5038788;28;45421;-74
2022/12/11 07:16:15;;;;;;;;;28.75;25.75;;;;;;;;5058108;28;45253;-74
2022/12/11 07:18:41;;;;;;;;;26.75;23.75;;;;;;;;5058781;28;46030;-74
2022/12/11 07:21:07;;;;;;;;;30.00;27.25;;;;;;;;5055041;28;45855;-74
2022/12/11 07:23:33;;;;;;;;;33.25;27.75;;;;;;;;5057759;28;45330;-74
2022/12/11 07:25:58;;;;;;;;;37.50;32.00;;;;;;;;5057511;28;45906;-75
2022/12/11 07:28:23;;;;;;;;;36.25;31.50;;;;;;;;5058957;28;45915;-75
2022/12/11 07:30:48;;;;;;;;;32.00;27.00;;;;;;;;5058758;28;45422;-74
2022/12/11 07:33:14;;;;;;;;;25.25;23.50;;;;;;;;5057540;28;45297;-75
2022/12/11 07:35:39;;;;;;;;;28.25;25.25;;;;;;;;5058770;28;45322;-74
2022/12/11 07:38:05;;;;;;;;;26.00;22.50;;;;;;;;5058392;28;45310;-74
2022/12/11 07:40:30;;;;;;;;;29.25;25.50;;;;;;;;5057349;28;45455;-75
2022/12/11 07:42:55;;;;;;;;;23.75;22.50;;;;;;;;5058771;28;45334;-74
2022/12/11 07:45:20;;;;;;;;;29.00;25.00;;;;;;;;5058662;28;45478;-75
2022/12/11 07:47:46;;;;;;;;;12.50;11.00;;;;;;;;5058520;28;46529;-74
2022/12/11 07:50:11;;;;;;;;;25.50;24.50;;;;;;;;5058483;28;45353;-74
2022/12/11 07:52:36;;;;;;;;;26.25;24.75;;;;;;;;5058620;28;45541;-74
2022/12/11 07:55:01;;;;;;;;;31.75;25.50;;;;;;;;5058237;28;45466;-74
2022/12/11 07:57:27;;;;;;;;;24.50;23.00;;;;;;;;5058639;28;45322;-76
2022/12/11 07:59:52;;;;;;;;;32.50;27.25;;;;;;;;5058319;28;45338;-75
2022/12/11 08:02:17;;;;;;;;;27.75;23.50;;;;;;;;5058597;28;45323;-74
2022/12/11 08:04:43;;;;;;;;;36.75;33.50;;;;;;;;5057313;28;47739;-75
2022/12/11 08:07:08;;;;;;;;;27.75;27.50;;;;;;;;5056776;28;48158;-74
2022/12/11 08:09:33;;;;;;;;;29.75;27.00;;;;;;;;5058375;28;45360;-74
2022/12/11 08:11:58;;;;;;;;;32.50;29.00;;;;;;;;5058342;28;45588;-74
2022/12/11 08:14:23;;;;;;;;;35.00;30.50;;;;;;;;5058312;28;45147;-74
2022/12/11 08:16:49;;;;;;;;;27.75;24.25;;;;;;;;5060626;28;45400;-74
2022/12/11 08:19:14;;;;;;;;;29.00;26.75;;;;;;;;5060166;28;45325;-74
2022/12/11 08:21:40;;;;;;;;;29.75;25.75;;;;;;;;5061894;28;45343;-73
2022/12/11 08:24:05;;;;;;;;;27.50;23.25;;;;;;;;5060438;28;46477;-75
2022/12/11 08:26:30;;;;;;;;;27.00;26.00;;;;;;;;5060158;28;48361;-75
2022/12/11 08:28:56;;;;;;;;;26.50;24.25;;;;;;;;5045352;28;45383;-76
2022/12/11 08:31:22;;;;;;;;;32.75;28.50;;;;;;;;5062111;28;45280;-73
2022/12/11 08:33:48;;;;;;;;;36.00;30.00;;;;;;;;5061582;28;45496;-74
2022/12/11 08:36:14;;;;;;;;;28.25;24.25;;;;;;;;5061490;28;45390;-73
2022/12/11 08:38:40;;;;;;;;;29.50;26.00;;;;;;;;5061279;28;45388;-74
2022/12/11 08:41:12;;;;;;;;;32.75;29.00;;;;;;;;5061349;28;45338;-74
2022/12/11 08:43:37;;;;;;;;;29.25;21.50;;;;;;;;5061182;28;45848;-74
2022/12/11 08:46:03;;;;;;;;;33.25;28.75;;;;;;;;5060977;28;45629;-74
2022/12/11 08:48:28;;;;;;;;;48.75;34.25;;;;;;;;5059954;28;45352;-74
2022/12/11 08:50:53;;;;;;;;;28.00;28.00;;;;;;;;5061429;28;45262;-74
2022/12/11 08:53:18;;;;;;;;;42.00;32.25;;;;;;;;5060043;28;45787;-74
2022/12/11 08:55:43;;;;;;;;;39.50;35.75;;;;;;;;5058000;28;48160;-73
2022/12/11 08:58:09;;;;;;;;;40.75;34.00;;;;;;;;5061473;28;45524;-74
2022/12/11 09:00:34;;;;;;;;;33.00;31.25;;;;;;;;5061024;28;45368;-74
2022/12/11 09:03:00;;;;;;;;;30.00;28.50;;;;;;;;5060894;28;45481;-73
2022/12/11 09:05:25;;;;;;;;;36.25;34.75;;;;;;;;5059530;28;48323;-74
2022/12/11 09:07:50;;;;;;;;;32.00;32.00;;;;;;;;5060883;28;45325;-74
2022/12/11 09:10:15;;;;;;;;;31.75;30.25;;;;;;;;5061295;28;45338;-74
2022/12/11 09:12:41;;;;;;;;;33.25;29.00;;;;;;;;5059455;28;46248;-73
2022/12/11 09:15:06;;;;;;;;;39.25;37.75;;;;;;;;5060661;28;45310;-74
2022/12/11 09:17:32;;;;;;;;;32.00;26.50;;;;;;;;5060653;28;45345;-74
2022/12/11 09:19:57;;;;;;;;;28.00;23.25;;;;;;;;5060831;28;45314;-74
2022/12/11 09:22:23;;;;;;;;;32.00;26.50;;;;;;;;5060555;28;45284;-74
2022/12/11 09:24:48;;;;;;;;;34.25;30.25;;;;;;;;5054414;28;46438;-75
2022/12/11 09:27:13;;;;;;;;;29.00;22.75;;;;;;;;5039116;28;45526;-74
2022/12/11 09:29:38;;;;;;;;;30.25;29.50;;;;;;;;5058450;28;45244;-75
2022/12/11 09:32:04;;;;;;;;;37.00;30.75;;;;;;;;5059281;28;46932;-74
2022/12/11 09:34:29;;;;;;;;;38.25;33.00;;;;;;;;5059061;28;48573;-74
2022/12/11 09:36:54;;;;;;;;;33.00;33.00;;;;;;;;5060646;28;45224;-73
2022/12/11 09:39:20;;;;;;;;;35.00;35.00;;;;;;;;5060352;28;45343;-74
2022/12/11 09:41:45;;;;;;;;;38.50;32.75;;;;;;;;5059684;28;45287;-74
2022/12/11 09:44:16;;;;;;;;;31.25;27.00;;;;;;;;5058764;28;47943;-73
2022/12/11 09:46:42;;;;;;;;;39.50;37.25;;;;;;;;5060236;28;45424;-74
2022/12/11 09:49:21;;;;;;;;;43.25;36.25;;;;;;;;5060449;28;45366;-73
2022/12/11 09:51:49;;;;;;;;;36.00;31.50;;;;;;;;5060170;28;45304;-73
2022/12/11 09:54:15;;;;;;;;;34.75;31.50;;;;;;;;5060012;28;45384;-74
2022/12/11 09:56:59;;;;;;;;;36.50;30.50;;;;;;;;5059970;28;45370;-73
2022/12/11 09:59:24;;;;;;;;;41.50;37.00;;;;;;;;5056191;28;45402;-73
2022/12/11 10:01:49;;;;;;;;;38.25;32.00;;;;;;;;5055224;28;45448;-73
2022/12/11 10:04:23;;;;;;;;;36.00;33.25;;;;;;;;5056411;28;48477;-74
2022/12/11 10:07:07;;;;;;;;;40.25;37.25;;;;;;;;5057072;28;45436;-73
2022/12/11 10:09:51;;;;;;;;;27.25;25.75;;;;;;;;5058531;28;45583;-73
2022/12/11 10:12:16;;;;;;;;;36.25;32.75;;;;;;;;5059574;28;45566;-73
2022/12/11 10:15:00;;;;;;;;;37.50;34.00;;;;;;;;5059455;28;45424;-74
2022/12/11 10:17:30;;;;;;;;;31.50;28.25;;;;;;;;5059512;28;45257;-73
2022/12/11 10:19:56;;;;;;;;;41.25;37.00;;;;;;;;5059695;28;45394;-74
2022/12/11 10:22:26;;;;;;;;;38.75;33.75;;;;;;;;5058076;28;46377;-74
2022/12/11 10:24:57;;;;;;;;;37.00;32.50;;;;;;;;5057179;28;46258;-74
2022/12/11 10:27:27;;;;;;;;;37.25;32.25;;;;;;;;5052071;28;45319;-74
2022/12/11 10:30:11;;;;;;;;;37.00;33.75;;;;;;;;5052421;28;45478;-73
2022/12/11 10:32:44;;;;;;;;;37.75;32.75;;;;;;;;5048805;28;46109;-73
2022/12/11 10:35:15;;;;;;;;;36.75;31.50;;;;;;;;5041416;28;45317;-73
2022/12/11 10:37:40;;;;;;;;;38.75;33.75;;;;;;;;5054930;28;45861;-73
2022/12/11 10:40:06;;;;;;;;;45.00;36.75;;;;;;;;5052473;28;45476;-73
2022/12/11 10:42:31;;;;;;;;;34.75;27.50;;;;;;;;5053928;28;45325;-73
2022/12/11 10:45:00;;;;;;;;;39.00;33.25;;;;;;;;5048519;28;45478;-73
2022/12/11 10:47:26;;;;;;;;;33.25;29.50;;;;;;;;5052359;28;45357;-73
2022/12/11 10:49:58;;;;;;;;;35.25;34.00;;;;;;;;5054356;28;45286;-73
2022/12/11 10:52:23;;;;;;;;;33.50;30.25;;;;;;;;5054345;28;45697;-73
2022/12/11 10:54:58;;;;;;;;;31.75;27.25;;;;;;;;5049253;28;45296;-73
2022/12/11 10:57:31;;;;;;;;;34.50;29.75;;;;;;;;5054764;28;45425;-74
2022/12/11 10:59:57;;;;;;;;;40.50;32.00;;;;;;;;5057558;28;45518;-73
2022/12/11 11:02:34;;;;;;;;;28.00;27.00;;;;;;;;5053082;28;46193;-74
2022/12/11 11:05:09;;;;;;;;;40.50;32.50;;;;;;;;5057468;28;45585;-73
2022/12/11 11:07:34;;;;;;;;;29.50;29.25;;;;;;;;5057182;28;45360;-73
2022/12/11 11:10:18;;;;;;;;;25.50;25.50;;;;;;;;5058072;28;45477;-75
2022/12/11 11:12:45;;;;;;;;;40.75;32.25;;;;;;;;5059013;28;45273;-76
2022/12/11 11:15:12;;;;;;;;;36.00;31.25;;;;;;;;5058763;28;45243;-75
2022/12/11 11:17:45;;;;;;;;;35.25;31.75;;;;;;;;5058552;28;45267;-76
2022/12/11 11:20:15;;;;;;;;;32.75;30.00;;;;;;;;5059108;28;45330;-76
2022/12/11 11:22:42;;;;;;;;;32.25;27.25;;;;;;;;5056246;28;46276;-76
2022/12/11 11:25:15;;;;;;;;;40.00;35.25;;;;;;;;5058434;28;46159;-75
2022/12/11 11:28:01;;;;;;;;;38.75;33.50;;;;;;;;5058857;28;45300;-75
2022/12/11 11:30:37;;;;;;;;;48.75;39.50;;;;;;;;5057516;28;44905;-76
2022/12/11 11:33:04;;;;;;;;;36.75;32.75;;;;;;;;5049658;28;45497;-76
2022/12/11 11:35:30;;;;;;;;;34.25;31.00;;;;;;;;5058796;28;47325;-76
2022/12/11 11:38:04;;;;;;;;;30.00;23.75;;;;;;;;5052082;28;45441;-75
2022/12/11 11:40:32;;;;;;;;;35.50;32.25;;;;;;;;5055092;28;45459;-76
2022/12/11 11:43:02;;;;;;;;;35.50;29.25;;;;;;;;5046368;28;46238;-75
2022/12/11 11:45:30;;;;;;;;;36.50;33.75;;;;;;;;5054935;28;45398;-75
2022/12/11 11:48:11;;;;;;;;;31.25;28.25;;;;;;;;5058554;28;45299;-75
2022/12/11 11:50:39;;;;;;;;;28.00;27.75;;;;;;;;5046206;28;45298;-75
2022/12/11 11:53:10;;;;;;;;;42.50;35.00;;;;;;;;5057757;28;47223;-76
2022/12/11 11:55:45;;;;;;;;;42.25;35.25;;;;;;;;5055295;28;45575;-75
2022/12/11 11:58:31;;;;;;;;;29.50;26.00;;;;;;;;5062262;28;45375;-75
2022/12/11 12:00:56;;;;;;;;;33.00;30.50;;;;;;;;5054048;28;45403;-75
2022/12/11 12:03:23;;;;;;;;;35.50;33.25;;;;;;;;5051634;28;45428;-75
2022/12/11 12:06:09;;;;;;;;;33.75;30.25;;;;;;;;5053298;28;47540;-75
2022/12/11 12:08:53;;;;;;;;;34.00;32.00;;;;;;;;5052695;28;45339;-75
2022/12/11 12:11:18;;;;;;;;;38.25;37.25;;;;;;;;5059775;28;45470;-76
2022/12/11 12:13:53;;;;;;;;;47.00;38.75;;;;;;;;5060591;28;45269;-75
2022/12/11 12:16:30;;;;;;;;;33.25;31.75;;;;;;;;5054404;28;47427;-76
2022/12/11 12:18:58;;;;;;;;;40.00;34.75;;;;;;;;5061556;28;45370;-76
2022/12/11 12:21:28;;;;;;;;;43.00;37.00;;;;;;;;5061914;28;45371;-76
2022/12/11 12:24:11;;;;;;;;;39.75;37.00;;;;;;;;5061878;28;45298;-76
2022/12/11 12:26:50;;;;;;;;;36.75;34.75;;;;;;;;5061810;28;45378;-76
2022/12/11 12:29:31;;;;;;;;;45.25;35.75;;;;;;;;5060647;28;45279;-76
2022/12/11 12:32:05;;;;;;;;;37.50;32.25;;;;;;;;5060611;28;45468;-76
2022/12/11 12:34:33;;;;;;;;;34.50;33.00;;;;;;;;5061580;28;45365;-76
2022/12/11 12:37:01;;;;;;;;;38.75;35.00;;;;;;;;5061821;28;46756;-76
2022/12/11 12:39:35;;;;;;;;;36.50;33.00;;;;;;;;5061587;28;45264;-76
2022/12/11 12:42:16;;;;;;;;;31.75;31.50;;;;;;;;5060592;28;45378;-76
2022/12/11 12:44:44;;;;;;;;;41.25;36.50;;;;;;;;5060491;28;46053;-76
2022/12/11 12:47:12;;;;;;;;;44.75;36.50;;;;;;;;5061689;28;45613;-76
2022/12/11 12:49:41;;;;;;;;;43.00;36.00;;;;;;;;5060206;28;45926;-76
2022/12/11 12:52:15;;;;;;;;;40.00;37.50;;;;;;;;5061897;28;45343;-76
2022/12/11 12:55:12;;;;;;;;;40.25;37.25;;;;;;;;5061836;28;45294;-76
2022/12/11 12:57:27;;;;;;;;;36.00;32.00;;;;;;;;5061872;28;46115;-76
2022/12/11 12:59:53;;;;;;;;;35.75;32.00;;;;;;;;5060326;28;46067;-76
2022/12/11 13:02:18;;;;;;;;;41.25;32.50;;;;;;;;5063024;28;45255;-76
2022/12/11 13:04:54;;;;;;;;;34.75;32.75;;;;;;;;5062977;28;45218;-75
2022/12/11 13:07:26;;;;;;;;;35.75;32.00;;;;;;;;5060539;28;45271;-76
2022/12/11 13:10:03;;;;;;;;;57.75;46.00;;;;;;;;5059466;28;45472;-76
2022/12/11 13:12:38;;;;;;;;;32.50;28.00;;;;;;;;5061200;28;45161;-76
2022/12/11 13:15:03;;;;;;;;;50.50;41.75;;;;;;;;5060685;28;45623;-76
2022/12/11 13:17:37;;;;;;;;;34.50;32.50;;;;;;;;5060381;28;46147;-75
2022/12/11 13:20:09;;;;;;;;;42.25;36.25;;;;;;;;5061013;28;45299;-77
2022/12/11 13:22:34;;;;;;;;;64.25;53.00;;;;;;;;5060806;28;45389;-76
2022/12/11 13:25:02;;;;;;;;;70.75;55.75;;;;;;;;5057821;28;46251;-76
2022/12/11 13:27:28;;;;;;;;;66.50;54.50;;;;;;;;5060587;28;45274;-76
2022/12/11 13:30:12;;;;;;;;;44.75;39.75;;;;;;;;5057120;28;45822;-76
2022/12/11 13:32:37;;;;;;;;;41.50;36.50;;;;;;;;5048985;28;45229;-76
2022/12/11 13:35:04;;;;;;;;;37.75;35.50;;;;;;;;5059145;28;45306;-76
2022/12/11 13:37:35;;;;;;;;;47.00;41.25;;;;;;;;5060055;28;46391;-76
2022/12/11 13:40:02;;;;;;;;;36.75;35.25;;;;;;;;5060369;28;45349;-76
2022/12/11 13:42:30;;;;;;;;;36.75;33.75;;;;;;;;5060613;28;45338;-76
2022/12/11 13:44:55;;;;;;;;;39.00;33.50;;;;;;;;5058909;28;46038;-76
2022/12/11 13:47:21;;;;;;;;;32.75;31.00;;;;;;;;5059956;28;45333;-76
2022/12/11 13:49:48;;;;;;;;;34.75;33.00;;;;;;;;5060255;28;45256;-76
2022/12/11 13:52:16;;;;;;;;;32.75;27.75;;;;;;;;5060422;28;45326;-76
2022/12/11 13:54:45;;;;;;;;;36.25;31.00;;;;;;;;5060211;28;45361;-76
2022/12/11 13:57:16;;;;;;;;;35.50;33.25;;;;;;;;5058933;28;47420;-76
2022/12/11 13:59:45;;;;;;;;;37.25;35.25;;;;;;;;5059336;28;45323;-75
2022/12/11 14:02:13;;;;;;;;;38.50;35.00;;;;;;;;5058824;28;45427;-75
2022/12/11 14:04:39;;;;;;;;;37.75;35.00;;;;;;;;5059989;28;45551;-75
2022/12/11 14:07:09;;;;;;;;;40.00;34.75;;;;;;;;5058579;28;47001;-75
2022/12/11 14:09:37;;;;;;;;;44.50;38.25;;;;;;;;5060190;28;45268;-75
2022/12/11 14:12:03;;;;;;;;;42.50;36.25;;;;;;;;5060139;28;45551;-76
2022/12/11 14:14:28;;;;;;;;;45.25;39.75;;;;;;;;5058789;28;45313;-75
2022/12/11 14:16:53;;;;;;;;;42.00;36.25;;;;;;;;5059821;28;45454;-75
2022/12/11 14:19:20;;;;;;;;;36.50;31.50;;;;;;;;5058444;28;45819;-76
2022/12/11 14:21:55;;;;;;;;;40.75;36.75;;;;;;;;5060313;28;45405;-76
2022/12/11 14:24:20;;;;;;;;;42.75;37.25;;;;;;;;5059639;28;45311;-77
2022/12/11 14:26:49;;;;;;;;;42.00;36.50;;;;;;;;5059796;28;45470;-76
2022/12/11 14:29:24;;;;;;;;;40.25;37.25;;;;;;;;5059818;28;45165;-76